sensor_id;sensor_type;location;lat;lon;timestamp;P1;durP1;ratioP1;P2;durP2;ratioP2
21148;SDS011;10732;51.472;6.466;2023-04-15T00:00:28;13.35;;;7.75;;
21148;SDS011;10732;51.472;6.466;2023-04-15T00:02:53;14.20;;;8.65;;
21148;SDS011;10732;51.472;6.466;2023-04-15T00:05:19;11.98;;;8.27;;
21148;SDS011;10732;51.472;6.466;2023-04-15T00:07:45;11.40;;;8.50;;
21148;SDS011;10732;51.472;6.466;2023-04-15T00:10:11;10.90;;;8.73;;
21148;SDS011;10732;51.472;6.466;2023-04-15T00:12:38;13.40;;;9.18;;
21148;SDS011;10732;51.472;6.466;2023-04-15T00:15:05;12.98;;;8.48;;
21148;SDS011;10732;51.472;6.466;2023-04-15T00:17:33;11.38;;;8.30;;
21148;SDS011;10732;51.472;6.466;2023-04-15T00:19:58;11.43;;;8.73;;
21148;SDS011;10732;51.472;6.466;2023-04-15T00:22:24;13.00;;;8.82;;
21148;SDS011;10732;51.472;6.466;2023-04-15T00:24:53;11.82;;;8.90;;
21148;SDS011;10732;51.472;6.466;2023-04-15T00:27:18;13.13;;;9.38;;
21148;SDS011;10732;51.472;6.466;2023-04-15T00:29:44;13.00;;;9.93;;
21148;SDS011;10732;51.472;6.466;2023-04-15T00:32:09;12.25;;;9.07;;
21148;SDS011;10732;51.472;6.466;2023-04-15T00:34:35;14.48;;;9.63;;
21148;SDS011;10732;51.472;6.466;2023-04-15T00:37:01;10.95;;;9.30;;
21148;SDS011;10732;51.472;6.466;2023-04-15T00:39:27;13.13;;;9.77;;
21148;SDS011;10732;51.472;6.466;2023-04-15T00:41:52;13.52;;;9.70;;
21148;SDS011;10732;51.472;6.466;2023-04-15T00:44:18;11.93;;;9.95;;
21148;SDS011;10732;51.472;6.466;2023-04-15T00:46:44;15.82;;;9.80;;
21148;SDS011;10732;51.472;6.466;2023-04-15T00:49:10;13.00;;;9.65;;
21148;SDS011;10732;51.472;6.466;2023-04-15T00:51:37;11.50;;;9.52;;
21148;SDS011;10732;51.472;6.466;2023-04-15T00:54:03;12.27;;;9.60;;
21148;SDS011;10732;51.472;6.466;2023-04-15T00:56:29;13.30;;;9.80;;
21148;SDS011;10732;51.472;6.466;2023-04-15T00:58:55;12.25;;;10.15;;
21148;SDS011;10732;51.472;6.466;2023-04-15T01:01:23;13.88;;;9.85;;
21148;SDS011;10732;51.472;6.466;2023-04-15T01:03:50;13.40;;;9.52;;
21148;SDS011;10732;51.472;6.466;2023-04-15T01:06:16;11.77;;;9.75;;
21148;SDS011;10732;51.472;6.466;2023-04-15T01:08:42;11.07;;;9.90;;
21148;SDS011;10732;51.472;6.466;2023-04-15T01:11:08;14.77;;;10.27;;
21148;SDS011;10732;51.472;6.466;2023-04-15T01:13:36;15.88;;;10.60;;
21148;SDS011;10732;51.472;6.466;2023-04-15T01:16:02;13.90;;;10.70;;
21148;SDS011;10732;51.472;6.466;2023-04-15T01:18:28;13.35;;;10.35;;
21148;SDS011;10732;51.472;6.466;2023-04-15T01:20:55;13.50;;;10.60;;
21148;SDS011;10732;51.472;6.466;2023-04-15T01:23:21;13.15;;;10.77;;
21148;SDS011;10732;51.472;6.466;2023-04-15T01:25:50;13.98;;;11.32;;
21148;SDS011;10732;51.472;6.466;2023-04-15T01:28:17;14.52;;;11.65;;
21148;SDS011;10732;51.472;6.466;2023-04-15T01:30:43;14.10;;;11.52;;
21148;SDS011;10732;51.472;6.466;2023-04-15T01:33:08;16.42;;;11.57;;
21148;SDS011;10732;51.472;6.466;2023-04-15T01:35:34;14.10;;;11.30;;
21148;SDS011;10732;51.472;6.466;2023-04-15T01:38:07;15.88;;;12.05;;
21148;SDS011;10732;51.472;6.466;2023-04-15T01:40:34;14.98;;;11.23;;
21148;SDS011;10732;51.472;6.466;2023-04-15T01:43:00;16.00;;;11.70;;
21148;SDS011;10732;51.472;6.466;2023-04-15T01:45:26;16.08;;;11.75;;
21148;SDS011;10732;51.472;6.466;2023-04-15T01:47:52;14.23;;;11.43;;
21148;SDS011;10732;51.472;6.466;2023-04-15T01:50:18;14.07;;;11.65;;
21148;SDS011;10732;51.472;6.466;2023-04-15T01:52:44;14.55;;;11.32;;
21148;SDS011;10732;51.472;6.466;2023-04-15T01:55:11;16.08;;;12.68;;
21148;SDS011;10732;51.472;6.466;2023-04-15T01:57:38;17.23;;;12.70;;
21148;SDS011;10732;51.472;6.466;2023-04-15T02:00:04;15.20;;;12.45;;
21148;SDS011;10732;51.472;6.466;2023-04-15T02:02:31;17.88;;;13.15;;
21148;SDS011;10732;51.472;6.466;2023-04-15T02:04:57;15.77;;;12.73;;
21148;SDS011;10732;51.472;6.466;2023-04-15T02:07:23;14.32;;;11.93;;
21148;SDS011;10732;51.472;6.466;2023-04-15T02:09:48;16.10;;;13.32;;
21148;SDS011;10732;51.472;6.466;2023-04-15T02:12:14;17.42;;;13.75;;
21148;SDS011;10732;51.472;6.466;2023-04-15T02:14:39;18.63;;;13.82;;
21148;SDS011;10732;51.472;6.466;2023-04-15T02:17:05;17.55;;;13.45;;
21148;SDS011;10732;51.472;6.466;2023-04-15T02:19:34;18.40;;;13.93;;
21148;SDS011;10732;51.472;6.466;2023-04-15T02:21:59;18.75;;;13.07;;
21148;SDS011;10732;51.472;6.466;2023-04-15T02:24:28;19.42;;;14.45;;
21148;SDS011;10732;51.472;6.466;2023-04-15T02:26:55;15.73;;;13.02;;
21148;SDS011;10732;51.472;6.466;2023-04-15T02:29:21;15.77;;;13.18;;
21148;SDS011;10732;51.472;6.466;2023-04-15T02:31:49;17.88;;;13.38;;
21148;SDS011;10732;51.472;6.466;2023-04-15T02:34:15;16.67;;;13.68;;
21148;SDS011;10732;51.472;6.466;2023-04-15T02:36:40;18.17;;;14.27;;
21148;SDS011;10732;51.472;6.466;2023-04-15T02:39:06;21.98;;;15.18;;
21148;SDS011;10732;51.472;6.466;2023-04-15T02:41:31;20.75;;;14.05;;
21148;SDS011;10732;51.472;6.466;2023-04-15T02:43:57;18.20;;;14.52;;
21148;SDS011;10732;51.472;6.466;2023-04-15T02:46:22;18.88;;;14.82;;
21148;SDS011;10732;51.472;6.466;2023-04-15T02:48:48;17.40;;;14.25;;
21148;SDS011;10732;51.472;6.466;2023-04-15T02:51:15;19.08;;;15.55;;
21148;SDS011;10732;51.472;6.466;2023-04-15T02:53:45;18.85;;;14.82;;
21148;SDS011;10732;51.472;6.466;2023-04-15T02:56:12;20.17;;;14.93;;
21148;SDS011;10732;51.472;6.466;2023-04-15T02:58:39;21.13;;;14.90;;
21148;SDS011;10732;51.472;6.466;2023-04-15T03:01:05;20.73;;;14.75;;
21148;SDS011;10732;51.472;6.466;2023-04-15T03:03:32;21.80;;;15.20;;
21148;SDS011;10732;51.472;6.466;2023-04-15T03:05:58;16.95;;;14.50;;
21148;SDS011;10732;51.472;6.466;2023-04-15T03:08:24;22.13;;;15.55;;
21148;SDS011;10732;51.472;6.466;2023-04-15T03:10:49;20.42;;;15.55;;
21148;SDS011;10732;51.472;6.466;2023-04-15T03:13:17;20.95;;;15.60;;
21148;SDS011;10732;51.472;6.466;2023-04-15T03:15:43;16.90;;;14.55;;
21148;SDS011;10732;51.472;6.466;2023-04-15T03:18:10;20.15;;;14.38;;
21148;SDS011;10732;51.472;6.466;2023-04-15T03:20:36;17.63;;;14.85;;
21148;SDS011;10732;51.472;6.466;2023-04-15T03:23:01;17.60;;;13.52;;
21148;SDS011;10732;51.472;6.466;2023-04-15T03:25:27;17.08;;;14.63;;
21148;SDS011;10732;51.472;6.466;2023-04-15T03:27:52;17.67;;;13.98;;
21148;SDS011;10732;51.472;6.466;2023-04-15T03:30:18;21.05;;;15.68;;
21148;SDS011;10732;51.472;6.466;2023-04-15T03:32:43;18.05;;;15.48;;
21148;SDS011;10732;51.472;6.466;2023-04-15T03:35:09;20.55;;;15.43;;
21148;SDS011;10732;51.472;6.466;2023-04-15T03:37:34;19.63;;;15.52;;
21148;SDS011;10732;51.472;6.466;2023-04-15T03:40:00;17.52;;;14.55;;
21148;SDS011;10732;51.472;6.466;2023-04-15T03:42:26;17.63;;;14.52;;
21148;SDS011;10732;51.472;6.466;2023-04-15T03:44:52;19.95;;;14.65;;
21148;SDS011;10732;51.472;6.466;2023-04-15T03:47:17;18.52;;;14.57;;
21148;SDS011;10732;51.472;6.466;2023-04-15T03:49:43;19.02;;;14.95;;
21148;SDS011;10732;51.472;6.466;2023-04-15T03:52:08;19.13;;;14.75;;
21148;SDS011;10732;51.472;6.466;2023-04-15T03:54:34;20.85;;;15.18;;
21148;SDS011;10732;51.472;6.466;2023-04-15T03:56:59;20.50;;;15.55;;
21148;SDS011;10732;51.472;6.466;2023-04-15T03:59:25;18.65;;;14.40;;
21148;SDS011;10732;51.472;6.466;2023-04-15T04:01:50;18.58;;;14.93;;
21148;SDS011;10732;51.472;6.466;2023-04-15T04:04:16;18.98;;;15.55;;
21148;SDS011;10732;51.472;6.466;2023-04-15T04:06:42;21.05;;;15.75;;
21148;SDS011;10732;51.472;6.466;2023-04-15T04:09:07;20.48;;;15.52;;
21148;SDS011;10732;51.472;6.466;2023-04-15T04:11:33;22.67;;;15.80;;
21148;SDS011;10732;51.472;6.466;2023-04-15T04:13:58;20.98;;;14.88;;
21148;SDS011;10732;51.472;6.466;2023-04-15T04:16:24;20.38;;;15.73;;
21148;SDS011;10732;51.472;6.466;2023-04-15T04:18:49;20.15;;;15.15;;
21148;SDS011;10732;51.472;6.466;2023-04-15T04:21:15;18.80;;;15.00;;
21148;SDS011;10732;51.472;6.466;2023-04-15T04:23:41;19.25;;;14.73;;
21148;SDS011;10732;51.472;6.466;2023-04-15T04:26:06;20.10;;;15.35;;
21148;SDS011;10732;51.472;6.466;2023-04-15T04:28:32;17.88;;;14.43;;
21148;SDS011;10732;51.472;6.466;2023-04-15T04:30:59;19.90;;;14.85;;
21148;SDS011;10732;51.472;6.466;2023-04-15T04:33:24;19.67;;;15.25;;
21148;SDS011;10732;51.472;6.466;2023-04-15T04:35:50;21.02;;;15.05;;
21148;SDS011;10732;51.472;6.466;2023-04-15T04:38:15;18.63;;;15.23;;
21148;SDS011;10732;51.472;6.466;2023-04-15T04:40:41;19.33;;;14.98;;
21148;SDS011;10732;51.472;6.466;2023-04-15T04:43:07;18.17;;;14.43;;
21148;SDS011;10732;51.472;6.466;2023-04-15T04:45:33;18.90;;;15.52;;
21148;SDS011;10732;51.472;6.466;2023-04-15T04:47:58;19.27;;;14.95;;
21148;SDS011;10732;51.472;6.466;2023-04-15T04:50:24;21.25;;;15.57;;
21148;SDS011;10732;51.472;6.466;2023-04-15T04:52:50;17.58;;;15.63;;
21148;SDS011;10732;51.472;6.466;2023-04-15T04:55:15;18.58;;;15.25;;
21148;SDS011;10732;51.472;6.466;2023-04-15T04:57:41;19.45;;;15.45;;
21148;SDS011;10732;51.472;6.466;2023-04-15T05:00:07;18.98;;;14.93;;
21148;SDS011;10732;51.472;6.466;2023-04-15T05:02:33;18.75;;;14.48;;
21148;SDS011;10732;51.472;6.466;2023-04-15T05:04:59;18.98;;;14.48;;
21148;SDS011;10732;51.472;6.466;2023-04-15T05:07:24;16.98;;;13.80;;
21148;SDS011;10732;51.472;6.466;2023-04-15T05:09:50;18.25;;;14.05;;
21148;SDS011;10732;51.472;6.466;2023-04-15T05:12:16;17.50;;;13.73;;
21148;SDS011;10732;51.472;6.466;2023-04-15T05:14:42;18.55;;;13.63;;
21148;SDS011;10732;51.472;6.466;2023-04-15T05:17:08;16.30;;;12.85;;
21148;SDS011;10732;51.472;6.466;2023-04-15T05:19:35;16.73;;;13.25;;
21148;SDS011;10732;51.472;6.466;2023-04-15T05:22:00;17.48;;;12.85;;
21148;SDS011;10732;51.472;6.466;2023-04-15T05:24:26;15.23;;;12.77;;
21148;SDS011;10732;51.472;6.466;2023-04-15T05:26:51;16.77;;;12.68;;
21148;SDS011;10732;51.472;6.466;2023-04-15T05:29:17;15.70;;;12.35;;
21148;SDS011;10732;51.472;6.466;2023-04-15T05:31:43;15.35;;;12.15;;
21148;SDS011;10732;51.472;6.466;2023-04-15T05:34:08;15.65;;;12.25;;
21148;SDS011;10732;51.472;6.466;2023-04-15T05:36:35;14.85;;;11.55;;
21148;SDS011;10732;51.472;6.466;2023-04-15T05:39:01;14.57;;;10.90;;
21148;SDS011;10732;51.472;6.466;2023-04-15T05:41:26;13.48;;;10.50;;
21148;SDS011;10732;51.472;6.466;2023-04-15T05:43:52;13.95;;;10.98;;
21148;SDS011;10732;51.472;6.466;2023-04-15T05:46:18;13.00;;;10.43;;
21148;SDS011;10732;51.472;6.466;2023-04-15T05:48:43;12.32;;;9.65;;
21148;SDS011;10732;51.472;6.466;2023-04-15T05:51:09;11.73;;;9.68;;
21148;SDS011;10732;51.472;6.466;2023-04-15T05:53:35;10.70;;;9.00;;
21148;SDS011;10732;51.472;6.466;2023-04-15T05:56:01;10.15;;;8.95;;
21148;SDS011;10732;51.472;6.466;2023-04-15T05:58:26;11.55;;;8.63;;
21148;SDS011;10732;51.472;6.466;2023-04-15T06:00:52;10.43;;;8.43;;
21148;SDS011;10732;51.472;6.466;2023-04-15T06:03:17;10.70;;;8.32;;
21148;SDS011;10732;51.472;6.466;2023-04-15T06:05:43;12.70;;;8.90;;
21148;SDS011;10732;51.472;6.466;2023-04-15T06:08:09;11.13;;;8.80;;
21148;SDS011;10732;51.472;6.466;2023-04-15T06:10:35;15.10;;;8.85;;
21148;SDS011;10732;51.472;6.466;2023-04-15T06:13:01;10.90;;;9.05;;
21148;SDS011;10732;51.472;6.466;2023-04-15T06:15:28;11.20;;;8.23;;
21148;SDS011;10732;51.472;6.466;2023-04-15T06:17:54;10.13;;;8.02;;
21148;SDS011;10732;51.472;6.466;2023-04-15T06:20:20;11.43;;;8.85;;
21148;SDS011;10732;51.472;6.466;2023-04-15T06:22:45;10.95;;;8.07;;
21148;SDS011;10732;51.472;6.466;2023-04-15T06:25:11;9.75;;;8.43;;
21148;SDS011;10732;51.472;6.466;2023-04-15T06:27:36;11.43;;;9.05;;
21148;SDS011;10732;51.472;6.466;2023-04-15T06:30:02;12.07;;;8.50;;
21148;SDS011;10732;51.472;6.466;2023-04-15T06:32:28;12.30;;;8.82;;
21148;SDS011;10732;51.472;6.466;2023-04-15T06:34:54;11.25;;;9.80;;
21148;SDS011;10732;51.472;6.466;2023-04-15T06:37:20;12.15;;;9.05;;
21148;SDS011;10732;51.472;6.466;2023-04-15T06:39:46;12.45;;;9.65;;
21148;SDS011;10732;51.472;6.466;2023-04-15T06:42:11;11.75;;;9.23;;
21148;SDS011;10732;51.472;6.466;2023-04-15T06:44:37;12.73;;;9.73;;
21148;SDS011;10732;51.472;6.466;2023-04-15T06:47:03;11.82;;;9.95;;
21148;SDS011;10732;51.472;6.466;2023-04-15T06:49:28;18.05;;;10.75;;
21148;SDS011;10732;51.472;6.466;2023-04-15T06:51:54;12.93;;;9.77;;
21148;SDS011;10732;51.472;6.466;2023-04-15T06:54:20;13.43;;;9.88;;
21148;SDS011;10732;51.472;6.466;2023-04-15T06:56:45;12.38;;;9.77;;
21148;SDS011;10732;51.472;6.466;2023-04-15T06:59:11;13.25;;;9.98;;
21148;SDS011;10732;51.472;6.466;2023-04-15T07:01:38;11.68;;;9.48;;
21148;SDS011;10732;51.472;6.466;2023-04-15T07:04:05;12.02;;;10.02;;
21148;SDS011;10732;51.472;6.466;2023-04-15T07:06:30;12.65;;;10.20;;
21148;SDS011;10732;51.472;6.466;2023-04-15T07:08:56;13.00;;;9.85;;
21148;SDS011;10732;51.472;6.466;2023-04-15T07:11:22;14.85;;;11.20;;
21148;SDS011;10732;51.472;6.466;2023-04-15T07:13:49;12.57;;;10.68;;
21148;SDS011;10732;51.472;6.466;2023-04-15T07:16:15;12.45;;;10.73;;
21148;SDS011;10732;51.472;6.466;2023-04-15T07:18:41;13.05;;;10.55;;
21148;SDS011;10732;51.472;6.466;2023-04-15T07:21:07;13.00;;;10.32;;
21148;SDS011;10732;51.472;6.466;2023-04-15T07:23:33;11.75;;;9.75;;
21148;SDS011;10732;51.472;6.466;2023-04-15T07:25:58;11.27;;;9.63;;
21148;SDS011;10732;51.472;6.466;2023-04-15T07:28:25;13.73;;;9.07;;
21148;SDS011;10732;51.472;6.466;2023-04-15T07:30:51;11.35;;;9.50;;
21148;SDS011;10732;51.472;6.466;2023-04-15T07:33:17;11.90;;;10.00;;
21148;SDS011;10732;51.472;6.466;2023-04-15T07:35:42;12.55;;;9.75;;
21148;SDS011;10732;51.472;6.466;2023-04-15T07:38:09;12.02;;;9.63;;
21148;SDS011;10732;51.472;6.466;2023-04-15T07:40:37;13.95;;;9.93;;
21148;SDS011;10732;51.472;6.466;2023-04-15T07:43:03;12.45;;;9.45;;
21148;SDS011;10732;51.472;6.466;2023-04-15T07:45:29;11.57;;;9.18;;
21148;SDS011;10732;51.472;6.466;2023-04-15T07:47:55;12.70;;;9.48;;
21148;SDS011;10732;51.472;6.466;2023-04-15T07:50:20;11.57;;;9.13;;
21148;SDS011;10732;51.472;6.466;2023-04-15T07:52:47;9.85;;;8.00;;
21148;SDS011;10732;51.472;6.466;2023-04-15T07:55:13;11.13;;;8.55;;
21148;SDS011;10732;51.472;6.466;2023-04-15T07:57:41;9.60;;;8.00;;
21148;SDS011;10732;51.472;6.466;2023-04-15T08:00:07;9.25;;;7.45;;
21148;SDS011;10732;51.472;6.466;2023-04-15T08:02:33;8.93;;;7.28;;
21148;SDS011;10732;51.472;6.466;2023-04-15T08:04:59;8.73;;;6.80;;
21148;SDS011;10732;51.472;6.466;2023-04-15T08:07:26;12.15;;;6.22;;
21148;SDS011;10732;51.472;6.466;2023-04-15T08:09:52;6.50;;;5.90;;
21148;SDS011;10732;51.472;6.466;2023-04-15T08:12:17;6.30;;;5.70;;
21148;SDS011;10732;51.472;6.466;2023-04-15T08:14:43;8.10;;;5.65;;
21148;SDS011;10732;51.472;6.466;2023-04-15T08:17:09;6.65;;;5.72;;
21148;SDS011;10732;51.472;6.466;2023-04-15T08:19:34;7.90;;;5.75;;
21148;SDS011;10732;51.472;6.466;2023-04-15T08:22:00;6.40;;;5.80;;
21148;SDS011;10732;51.472;6.466;2023-04-15T08:24:25;6.85;;;5.10;;
21148;SDS011;10732;51.472;6.466;2023-04-15T08:26:51;6.15;;;5.25;;
21148;SDS011;10732;51.472;6.466;2023-04-15T08:29:17;6.85;;;5.45;;
21148;SDS011;10732;51.472;6.466;2023-04-15T08:31:42;4.97;;;4.47;;
21148;SDS011;10732;51.472;6.466;2023-04-15T08:34:08;6.95;;;5.35;;
21148;SDS011;10732;51.472;6.466;2023-04-15T08:36:35;5.90;;;5.00;;
21148;SDS011;10732;51.472;6.466;2023-04-15T08:39:01;6.18;;;5.07;;
21148;SDS011;10732;51.472;6.466;2023-04-15T08:41:28;6.18;;;4.97;;
21148;SDS011;10732;51.472;6.466;2023-04-15T08:44:11;6.72;;;4.95;;
21148;SDS011;10732;51.472;6.466;2023-04-15T08:46:38;7.38;;;5.03;;
21148;SDS011;10732;51.472;6.466;2023-04-15T08:49:06;6.05;;;5.05;;
21148;SDS011;10732;51.472;6.466;2023-04-15T08:51:35;4.88;;;4.22;;
21148;SDS011;10732;51.472;6.466;2023-04-15T08:54:01;7.18;;;4.45;;
21148;SDS011;10732;51.472;6.466;2023-04-15T08:56:29;4.85;;;3.70;;
21148;SDS011;10732;51.472;6.466;2023-04-15T08:58:56;6.28;;;3.38;;
21148;SDS011;10732;51.472;6.466;2023-04-15T09:01:23;3.63;;;2.92;;
21148;SDS011;10732;51.472;6.466;2023-04-15T09:03:49;3.72;;;3.20;;
21148;SDS011;10732;51.472;6.466;2023-04-15T09:06:16;3.33;;;3.03;;
21148;SDS011;10732;51.472;6.466;2023-04-15T09:08:42;4.30;;;3.22;;
21148;SDS011;10732;51.472;6.466;2023-04-15T09:11:08;3.80;;;3.28;;
21148;SDS011;10732;51.472;6.466;2023-04-15T09:13:33;4.38;;;3.67;;
21148;SDS011;10732;51.472;6.466;2023-04-15T09:16:02;5.18;;;3.78;;
21148;SDS011;10732;51.472;6.466;2023-04-15T09:18:30;5.10;;;3.92;;
21148;SDS011;10732;51.472;6.466;2023-04-15T09:21:07;6.07;;;4.25;;
21148;SDS011;10732;51.472;6.466;2023-04-15T09:23:35;5.95;;;4.18;;
21148;SDS011;10732;51.472;6.466;2023-04-15T09:26:02;5.07;;;4.30;;
21148;SDS011;10732;51.472;6.466;2023-04-15T09:28:29;6.57;;;4.35;;
21148;SDS011;10732;51.472;6.466;2023-04-15T09:30:59;4.55;;;3.83;;
21148;SDS011;10732;51.472;6.466;2023-04-15T09:33:25;3.83;;;3.42;;
21148;SDS011;10732;51.472;6.466;2023-04-15T09:36:03;3.97;;;3.58;;
21148;SDS011;10732;51.472;6.466;2023-04-15T09:38:29;4.30;;;3.90;;
21148;SDS011;10732;51.472;6.466;2023-04-15T09:40:56;4.45;;;3.83;;
21148;SDS011;10732;51.472;6.466;2023-04-15T09:43:25;4.40;;;4.00;;
21148;SDS011;10732;51.472;6.466;2023-04-15T09:46:02;7.13;;;3.60;;
21148;SDS011;10732;51.472;6.466;2023-04-15T09:48:28;3.92;;;3.35;;
21148;SDS011;10732;51.472;6.466;2023-04-15T09:50:58;4.00;;;3.53;;
21148;SDS011;10732;51.472;6.466;2023-04-15T09:53:24;4.20;;;3.80;;
21148;SDS011;10732;51.472;6.466;2023-04-15T09:55:51;3.60;;;3.30;;
21148;SDS011;10732;51.472;6.466;2023-04-15T09:58:19;4.35;;;3.42;;
21148;SDS011;10732;51.472;6.466;2023-04-15T10:00:46;3.60;;;3.30;;
21148;SDS011;10732;51.472;6.466;2023-04-15T10:03:18;4.03;;;3.30;;
21148;SDS011;10732;51.472;6.466;2023-04-15T10:05:48;3.25;;;2.95;;
21148;SDS011;10732;51.472;6.466;2023-04-15T10:08:16;4.82;;;2.85;;
21148;SDS011;10732;51.472;6.466;2023-04-15T10:10:47;3.03;;;2.63;;
21148;SDS011;10732;51.472;6.466;2023-04-15T10:13:13;3.53;;;3.22;;
21148;SDS011;10732;51.472;6.466;2023-04-15T10:15:42;5.55;;;4.30;;
21148;SDS011;10732;51.472;6.466;2023-04-15T10:18:11;7.95;;;4.38;;
21148;SDS011;10732;51.472;6.466;2023-04-15T10:20:39;8.05;;;4.70;;
21148;SDS011;10732;51.472;6.466;2023-04-15T10:23:06;5.45;;;3.95;;
21148;SDS011;10732;51.472;6.466;2023-04-15T10:25:33;5.57;;;4.30;;
21148;SDS011;10732;51.472;6.466;2023-04-15T10:28:00;4.97;;;4.30;;
21148;SDS011;10732;51.472;6.466;2023-04-15T10:30:26;8.43;;;4.60;;
21148;SDS011;10732;51.472;6.466;2023-04-15T10:32:52;5.63;;;4.53;;
21148;SDS011;10732;51.472;6.466;2023-04-15T10:35:19;5.10;;;4.05;;
21148;SDS011;10732;51.472;6.466;2023-04-15T10:37:45;7.07;;;4.32;;
21148;SDS011;10732;51.472;6.466;2023-04-15T10:42:50;6.50;;;5.18;;
21148;SDS011;10732;51.472;6.466;2023-04-15T10:45:15;6.68;;;5.00;;
21148;SDS011;10732;51.472;6.466;2023-04-15T10:47:43;6.95;;;5.47;;
21148;SDS011;10732;51.472;6.466;2023-04-15T10:50:09;5.72;;;4.75;;
21148;SDS011;10732;51.472;6.466;2023-04-15T10:52:36;6.88;;;5.15;;
21148;SDS011;10732;51.472;6.466;2023-04-15T10:55:15;5.35;;;4.65;;
21148;SDS011;10732;51.472;6.466;2023-04-15T10:57:46;4.38;;;3.97;;
21148;SDS011;10732;51.472;6.466;2023-04-15T11:00:15;7.07;;;4.70;;
21148;SDS011;10732;51.472;6.466;2023-04-15T11:08:06;5.30;;;4.80;;
21148;SDS011;10732;51.472;6.466;2023-04-15T11:13:01;5.57;;;4.40;;
21148;SDS011;10732;51.472;6.466;2023-04-15T11:18:10;5.25;;;4.18;;
21148;SDS011;10732;51.472;6.466;2023-04-15T11:20:40;3.92;;;3.50;;
21148;SDS011;10732;51.472;6.466;2023-04-15T11:26:00;3.78;;;3.38;;
21148;SDS011;10732;51.472;6.466;2023-04-15T11:28:28;3.88;;;3.53;;
21148;SDS011;10732;51.472;6.466;2023-04-15T11:30:54;3.85;;;3.45;;
21148;SDS011;10732;51.472;6.466;2023-04-15T11:33:20;4.22;;;3.65;;
21148;SDS011;10732;51.472;6.466;2023-04-15T11:35:47;4.95;;;3.97;;
21148;SDS011;10732;51.472;6.466;2023-04-15T11:38:13;4.50;;;3.35;;
21148;SDS011;10732;51.472;6.466;2023-04-15T11:40:39;5.65;;;3.55;;
21148;SDS011;10732;51.472;6.466;2023-04-15T11:43:15;4.05;;;3.47;;
21148;SDS011;10732;51.472;6.466;2023-04-15T11:45:54;4.47;;;3.63;;
21148;SDS011;10732;51.472;6.466;2023-04-15T11:48:30;4.28;;;3.42;;
21148;SDS011;10732;51.472;6.466;2023-04-15T11:51:01;4.20;;;3.80;;
21148;SDS011;10732;51.472;6.466;2023-04-15T11:53:44;4.45;;;3.72;;
21148;SDS011;10732;51.472;6.466;2023-04-15T11:56:18;3.55;;;2.97;;
21148;SDS011;10732;51.472;6.466;2023-04-15T11:58:48;4.25;;;3.05;;
21148;SDS011;10732;51.472;6.466;2023-04-15T12:01:17;3.47;;;2.97;;
21148;SDS011;10732;51.472;6.466;2023-04-15T12:03:44;4.13;;;3.10;;
21148;SDS011;10732;51.472;6.466;2023-04-15T12:08:49;4.28;;;3.08;;
21148;SDS011;10732;51.472;6.466;2023-04-15T12:19:09;7.88;;;3.50;;
21148;SDS011;10732;51.472;6.466;2023-04-15T12:21:37;5.03;;;3.65;;
21148;SDS011;10732;51.472;6.466;2023-04-15T12:24:08;5.13;;;3.50;;
21148;SDS011;10732;51.472;6.466;2023-04-15T12:26:45;6.63;;;3.55;;
21148;SDS011;10732;51.472;6.466;2023-04-15T12:29:24;6.60;;;3.30;;
21148;SDS011;10732;51.472;6.466;2023-04-15T12:31:54;4.47;;;3.25;;
21148;SDS011;10732;51.472;6.466;2023-04-15T12:34:25;5.25;;;3.17;;
21148;SDS011;10732;51.472;6.466;2023-04-15T12:36:52;4.45;;;3.08;;
21148;SDS011;10732;51.472;6.466;2023-04-15T12:39:21;3.72;;;2.83;;
21148;SDS011;10732;51.472;6.466;2023-04-15T12:41:50;5.32;;;3.20;;
21148;SDS011;10732;51.472;6.466;2023-04-15T12:44:16;6.50;;;3.30;;
21148;SDS011;10732;51.472;6.466;2023-04-15T12:46:42;5.15;;;3.30;;
21148;SDS011;10732;51.472;6.466;2023-04-15T12:49:08;5.35;;;3.50;;
21148;SDS011;10732;51.472;6.466;2023-04-15T12:51:33;3.25;;;2.90;;
21148;SDS011;10732;51.472;6.466;2023-04-15T12:53:59;7.05;;;2.95;;
21148;SDS011;10732;51.472;6.466;2023-04-15T12:56:24;2.88;;;2.50;;
21148;SDS011;10732;51.472;6.466;2023-04-15T12:58:50;3.30;;;2.60;;
21148;SDS011;10732;51.472;6.466;2023-04-15T13:01:16;3.63;;;2.75;;
21148;SDS011;10732;51.472;6.466;2023-04-15T13:03:42;3.00;;;2.70;;
21148;SDS011;10732;51.472;6.466;2023-04-15T13:06:08;6.47;;;3.03;;
21148;SDS011;10732;51.472;6.466;2023-04-15T13:08:34;5.38;;;3.28;;
21148;SDS011;10732;51.472;6.466;2023-04-15T13:10:59;4.63;;;3.42;;
21148;SDS011;10732;51.472;6.466;2023-04-15T13:13:25;4.88;;;3.72;;
21148;SDS011;10732;51.472;6.466;2023-04-15T13:15:51;4.53;;;2.92;;
21148;SDS011;10732;51.472;6.466;2023-04-15T13:18:17;4.53;;;3.25;;
21148;SDS011;10732;51.472;6.466;2023-04-15T13:20:42;4.45;;;3.70;;
21148;SDS011;10732;51.472;6.466;2023-04-15T13:23:08;5.40;;;3.50;;
21148;SDS011;10732;51.472;6.466;2023-04-15T13:25:34;4.50;;;3.60;;
21148;SDS011;10732;51.472;6.466;2023-04-15T13:27:59;4.35;;;3.42;;
21148;SDS011;10732;51.472;6.466;2023-04-15T13:30:25;4.10;;;3.70;;
21148;SDS011;10732;51.472;6.466;2023-04-15T13:32:51;4.55;;;3.63;;
21148;SDS011;10732;51.472;6.466;2023-04-15T13:35:18;5.40;;;3.95;;
21148;SDS011;10732;51.472;6.466;2023-04-15T13:37:44;6.10;;;3.75;;
21148;SDS011;10732;51.472;6.466;2023-04-15T13:40:09;8.52;;;4.13;;
21148;SDS011;10732;51.472;6.466;2023-04-15T13:42:35;5.18;;;3.72;;
21148;SDS011;10732;51.472;6.466;2023-04-15T13:45:01;4.20;;;3.42;;
21148;SDS011;10732;51.472;6.466;2023-04-15T13:47:27;7.30;;;3.80;;
21148;SDS011;10732;51.472;6.466;2023-04-15T13:49:52;5.95;;;3.80;;
21148;SDS011;10732;51.472;6.466;2023-04-15T13:52:20;5.32;;;3.63;;
21148;SDS011;10732;51.472;6.466;2023-04-15T13:54:46;5.97;;;3.30;;
21148;SDS011;10732;51.472;6.466;2023-04-15T13:57:11;4.30;;;3.35;;
21148;SDS011;10732;51.472;6.466;2023-04-15T13:59:37;5.68;;;3.70;;
21148;SDS011;10732;51.472;6.466;2023-04-15T14:02:03;8.63;;;4.00;;
21148;SDS011;10732;51.472;6.466;2023-04-15T14:04:29;6.30;;;3.88;;
21148;SDS011;10732;51.472;6.466;2023-04-15T14:06:55;5.28;;;4.10;;
21148;SDS011;10732;51.472;6.466;2023-04-15T14:09:21;4.43;;;3.00;;
21148;SDS011;10732;51.472;6.466;2023-04-15T14:11:48;4.38;;;2.90;;
21148;SDS011;10732;51.472;6.466;2023-04-15T14:14:16;5.20;;;3.20;;
21148;SDS011;10732;51.472;6.466;2023-04-15T14:16:42;7.95;;;3.85;;
21148;SDS011;10732;51.472;6.466;2023-04-15T14:19:07;6.82;;;3.50;;
21148;SDS011;10732;51.472;6.466;2023-04-15T14:21:33;4.45;;;2.75;;
21148;SDS011;10732;51.472;6.466;2023-04-15T14:23:58;4.65;;;2.80;;
21148;SDS011;10732;51.472;6.466;2023-04-15T14:26:24;2.72;;;2.17;;
21148;SDS011;10732;51.472;6.466;2023-04-15T14:28:50;6.65;;;3.13;;
21148;SDS011;10732;51.472;6.466;2023-04-15T14:31:15;4.65;;;2.58;;
21148;SDS011;10732;51.472;6.466;2023-04-15T14:33:41;4.40;;;2.45;;
21148;SDS011;10732;51.472;6.466;2023-04-15T14:36:07;3.88;;;2.60;;
21148;SDS011;10732;51.472;6.466;2023-04-15T14:38:33;3.47;;;2.40;;
21148;SDS011;10732;51.472;6.466;2023-04-15T14:41:04;4.70;;;2.20;;
21148;SDS011;10732;51.472;6.466;2023-04-15T14:43:30;3.03;;;2.00;;
21148;SDS011;10732;51.472;6.466;2023-04-15T14:45:55;4.60;;;2.30;;
21148;SDS011;10732;51.472;6.466;2023-04-15T14:48:21;2.65;;;2.30;;
21148;SDS011;10732;51.472;6.466;2023-04-15T14:50:46;4.88;;;2.10;;
21148;SDS011;10732;51.472;6.466;2023-04-15T14:53:12;4.22;;;2.40;;
21148;SDS011;10732;51.472;6.466;2023-04-15T14:55:38;4.50;;;2.50;;
21148;SDS011;10732;51.472;6.466;2023-04-15T14:58:04;3.92;;;2.30;;